Time;durP1;ratioP1;P1;durP2;ratioP2;P2;SDS_P1;SDS_P2;PMS_P1;PMS_P2;Temp;Humidity;BMP_temperature;BMP_pressure;BME280_temperature;BME280_humidity;BME280_pressure;Samples;Min_cycle;Max_cycle;Signal;HPM_P1;HPM_P2
2022/10/30 00:00:51;;;;;;;10.85;5.78;;;15.30;99.90;;;;;;4985150;28;20125;-75
2022/10/30 00:03:17;;;;;;;12.65;6.40;;;15.30;99.90;;;;;;5005698;28;20069;-74
2022/10/30 00:05:46;;;;;;;11.63;5.47;;;15.30;99.90;;;;;;5007688;28;20241;-73
2022/10/30 00:08:13;;;;;;;17.90;5.68;;;15.30;99.90;;;;;;4982960;28;20510;-73
2022/10/30 00:10:39;;;;;;;16.77;5.43;;;15.30;99.90;;;;;;4996372;28;20049;-75
2022/10/30 00:13:06;;;;;;;15.18;5.88;;;15.30;99.90;;;;;;4988913;28;20140;-73
2022/10/30 00:15:35;;;;;;;14.63;6.30;;;15.30;99.90;;;;;;5006508;28;20079;-73
2022/10/30 00:18:04;;;;;;;16.95;6.03;;;15.30;99.90;;;;;;4986529;28;20126;-73
2022/10/30 00:20:29;;;;;;;13.45;6.25;;;15.30;99.90;;;;;;4987349;28;20127;-73
2022/10/30 00:22:55;;;;;;;17.17;6.78;;;15.30;99.90;;;;;;5009101;28;20121;-73
2022/10/30 00:25:21;;;;;;;11.38;5.28;;;15.30;99.90;;;;;;5016424;28;20080;-73
2022/10/30 00:27:47;;;;;;;11.98;6.50;;;15.30;99.90;;;;;;4991685;28;20045;-74
2022/10/30 00:30:14;;;;;;;12.73;5.60;;;15.30;99.90;;;;;;4991376;28;20633;-73
2022/10/30 00:32:41;;;;;;;12.57;5.80;;;15.30;99.90;;;;;;5009933;28;20049;-74
2022/10/30 00:35:08;;;;;;;12.60;5.80;;;15.30;99.90;;;;;;4991332;28;20053;-73
2022/10/30 00:37:34;;;;;;;12.85;6.07;;;15.30;99.90;;;;;;4991662;28;20045;-73
2022/10/30 00:39:59;;;;;;;16.80;6.22;;;15.20;99.90;;;;;;4991140;28;20053;-73
2022/10/30 00:42:29;;;;;;;15.15;6.13;;;15.20;99.90;;;;;;4991545;28;20159;-73
2022/10/30 00:44:55;;;;;;;16.15;7.10;;;15.20;99.90;;;;;;4986678;28;20037;-74
2022/10/30 00:47:41;;;;;;;11.85;5.95;;;15.20;99.90;;;;;;4988974;28;20030;-73
2022/10/30 00:50:21;;;;;;;13.85;6.25;;;15.20;99.90;;;;;;5004519;28;20220;-73
2022/10/30 00:53:10;;;;;;;11.88;5.82;;;15.20;99.90;;;;;;4991497;28;20107;-74
2022/10/30 00:55:52;;;;;;;10.18;5.53;;;15.20;99.90;;;;;;4991904;28;20103;-74
2022/10/30 00:58:23;;;;;;;16.38;6.15;;;15.20;99.90;;;;;;4991439;28;20440;-73
2022/10/30 01:00:52;;;;;;;18.15;6.18;;;15.20;99.90;;;;;;4991740;28;20050;-73
2022/10/30 01:03:20;;;;;;;12.15;6.13;;;15.10;99.90;;;;;;5008988;28;20863;-73
2022/10/30 01:05:51;;;;;;;14.10;6.53;;;15.20;99.90;;;;;;5009378;28;20296;-73
2022/10/30 01:08:17;;;;;;;14.10;6.80;;;15.10;99.90;;;;;;4991546;28;20411;-73
2022/10/30 01:10:44;;;;;;;15.27;5.72;;;15.10;99.90;;;;;;5008925;28;20049;-73
2022/10/30 01:13:15;;;;;;;;;;;15.20;99.90;;;;;;4990561;28;20052;-72
2022/10/30 01:16:00;;;;;;;14.20;5.80;;;15.10;99.90;;;;;;5008932;28;19925;-73
2022/10/30 01:18:36;;;;;;;13.23;6.03;;;15.10;99.90;;;;;;5005401;28;20103;-73
2022/10/30 01:21:29;;;;;;;17.88;5.25;;;15.10;99.90;;;;;;5002729;28;20045;-73
2022/10/30 01:24:03;;;;;;;12.45;5.68;;;15.10;99.90;;;;;;4983415;28;20054;-73
2022/10/30 01:26:49;;;;;;;13.27;6.47;;;15.10;99.90;;;;;;5013764;28;20045;-73
2022/10/30 01:29:28;;;;;;;12.27;5.47;;;15.10;99.90;;;;;;4993069;28;20042;-73
2022/10/30 01:32:06;;;;;;;18.67;5.85;;;15.10;99.90;;;;;;4982487;28;20088;-74
2022/10/30 01:34:54;;;;;;;13.57;6.43;;;15.10;99.90;;;;;;4992106;28;20045;-73
2022/10/30 01:37:44;;;;;;;13.82;6.60;;;15.10;99.90;;;;;;5010065;28;20528;-73
2022/10/30 01:40:16;;;;;;;10.00;5.97;;;15.10;99.90;;;;;;4985676;28;20042;-73
2022/10/30 01:42:52;;;;;;;10.18;5.40;;;15.10;99.90;;;;;;4990198;28;20045;-73
2022/10/30 01:45:46;;;;;;;12.05;6.13;;;15.10;99.90;;;;;;5008524;28;20072;-73
2022/10/30 01:48:44;;;;;;;13.93;6.10;;;15.00;99.90;;;;;;4985426;28;20069;-73
2022/10/30 01:51:36;;;;;;;13.75;5.90;;;15.00;99.90;;;;;;5004328;28;20050;-73
2022/10/30 01:54:24;;;;;;;20.55;5.55;;;15.00;99.90;;;;;;4989888;28;20061;-73
2022/10/30 01:57:13;;;;;;;12.30;5.72;;;15.00;99.90;;;;;;4990034;28;20503;-72
2022/10/30 01:59:49;;;;;;;19.58;5.97;;;14.90;99.90;;;;;;5007254;28;20571;-73
2022/10/30 02:02:15;;;;;;;11.07;5.30;;;14.90;99.90;;;;;;4986703;28;20065;-73
2022/10/30 02:04:41;;;;;;;15.77;5.55;;;15.00;99.90;;;;;;4982651;28;20038;-73
2022/10/30 02:07:07;;;;;;;15.75;5.05;;;14.90;99.90;;;;;;5010900;28;20416;-73
2022/10/30 02:09:36;;;;;;;13.35;6.10;;;14.90;99.90;;;;;;4993542;28;20034;-73
2022/10/30 02:12:05;;;;;;;11.05;5.32;;;14.90;99.90;;;;;;5011063;28;20050;-73
2022/10/30 02:14:44;;;;;;;17.23;6.32;;;14.90;99.90;;;;;;4992499;28;20157;-73
2022/10/30 02:17:11;;;;;;;14.95;6.47;;;14.90;99.90;;;;;;4972804;28;20477;-73
2022/10/30 02:19:37;;;;;;;17.17;6.13;;;14.90;99.90;;;;;;5010236;28;20131;-73
2022/10/30 02:22:06;;;;;;;16.70;5.97;;;14.90;99.90;;;;;;5010322;28;20381;-73
2022/10/30 02:24:32;;;;;;;12.45;6.28;;;14.90;99.90;;;;;;4995219;28;20116;-73
2022/10/30 02:26:58;;;;;;;15.00;5.43;;;14.80;99.90;;;;;;5008726;28;20037;-73
2022/10/30 02:29:24;;;;;;;17.80;6.05;;;14.80;99.90;;;;;;5009005;28;20081;-73
2022/10/30 02:31:49;;;;;;;19.13;6.15;;;14.80;99.90;;;;;;4991350;28;20073;-74
2022/10/30 02:34:15;;;;;;;14.13;6.20;;;14.80;99.90;;;;;;4994910;28;20435;-73
2022/10/30 02:36:42;;;;;;;13.10;6.28;;;14.80;99.90;;;;;;5010960;28;20041;-73
2022/10/30 02:39:08;;;;;;;;;;;14.80;99.90;;;;;;4992624;28;20049;-73
2022/10/30 02:41:36;;;;;;;12.68;5.15;;;14.80;99.90;;;;;;5009369;28;19918;-73
2022/10/30 02:44:05;;;;;;;14.88;5.80;;;14.70;99.90;;;;;;5011846;28;20042;-73
2022/10/30 02:46:34;;;;;;;15.95;6.07;;;14.80;99.90;;;;;;4991452;28;20041;-73
2022/10/30 02:49:01;;;;;;;14.52;6.05;;;14.70;99.90;;;;;;4978732;28;20146;-73
2022/10/30 02:51:29;;;;;;;12.18;5.57;;;14.70;99.90;;;;;;4975614;28;20087;-73
2022/10/30 02:53:55;;;;;;;10.45;4.90;;;14.70;99.90;;;;;;5008218;28;20546;-73
2022/10/30 02:56:20;;;;;;;11.13;6.30;;;14.70;99.90;;;;;;4992248;28;20121;-73
2022/10/30 02:58:46;;;;;;;11.73;6.15;;;14.70;99.90;;;;;;5006774;28;20229;-73
2022/10/30 03:01:15;;;;;;;12.82;5.95;;;14.70;99.90;;;;;;4963163;23;20375;-74
2022/10/30 03:03:41;;;;;;;13.77;6.15;;;14.70;99.90;;;;;;4947662;28;20082;-73
2022/10/30 03:06:09;;;;;;;14.00;6.57;;;14.60;99.90;;;;;;4969799;28;20543;-74
2022/10/30 03:08:35;;;;;;;16.23;6.70;;;14.60;99.90;;;;;;4947750;28;20043;-71
2022/10/30 03:11:05;;;;;;;16.35;6.45;;;14.60;99.90;;;;;;4961502;28;20139;-71
2022/10/30 03:13:32;;;;;;;13.95;6.43;;;14.60;99.90;;;;;;4964886;28;20109;-72
2022/10/30 03:16:06;;;;;;;16.77;6.50;;;14.60;99.90;;;;;;4963480;28;20460;-72
2022/10/30 03:18:32;;;;;;;16.23;6.03;;;14.60;99.90;;;;;;4943710;28;20046;-72
2022/10/30 03:20:59;;;;;;;;;;;14.60;99.90;;;;;;4930414;28;20134;-71
2022/10/30 03:23:26;;;;;;;12.63;5.68;;;14.60;99.90;;;;;;4967031;28;20012;-72
2022/10/30 03:25:56;;;;;;;10.93;6.60;;;14.50;99.90;;;;;;4948230;28;20038;-71
2022/10/30 03:28:24;;;;;;;12.88;5.88;;;14.60;99.90;;;;;;4949994;28;20142;-72
2022/10/30 03:30:50;;;;;;;17.00;6.28;;;14.50;99.90;;;;;;4949377;28;20072;-71
2022/10/30 03:33:16;;;;;;;16.20;6.57;;;14.50;99.90;;;;;;4967525;28;20074;-71
2022/10/30 03:35:43;;;;;;;17.30;7.00;;;14.50;99.90;;;;;;4948661;28;20047;-71
2022/10/30 03:38:10;;;;;;;11.73;6.18;;;14.50;99.90;;;;;;4964571;28;20130;-71
2022/10/30 03:40:36;;;;;;;14.43;5.93;;;14.50;99.90;;;;;;4944871;28;20535;-76
2022/10/30 03:43:01;;;;;;;18.67;7.47;;;14.40;99.90;;;;;;4966208;28;20051;-71
2022/10/30 03:45:27;;;;;;;18.00;5.78;;;14.50;99.90;;;;;;4965605;28;20050;-73
2022/10/30 03:47:52;;;;;;;13.73;7.03;;;14.40;99.90;;;;;;4948467;28;20349;-73
2022/10/30 03:50:18;;;;;;;16.13;7.73;;;14.40;99.90;;;;;;4965734;28;20271;-73
2022/10/30 03:52:44;;;;;;;25.17;8.27;;;14.40;99.90;;;;;;4965624;28;20061;-73
2022/10/30 03:55:09;;;;;;;12.23;6.93;;;14.40;99.90;;;;;;4964748;28;20272;-72
2022/10/30 03:57:36;;;;;;;14.98;6.68;;;14.40;99.90;;;;;;4950723;28;20168;-72
2022/10/30 04:00:02;;;;;;;16.23;6.45;;;14.40;99.90;;;;;;4946904;28;20472;-74
2022/10/30 04:02:27;;;;;;;16.20;6.13;;;14.40;99.90;;;;;;4944485;28;20150;-76
2022/10/30 04:04:53;;;;;;;16.02;7.15;;;14.40;99.90;;;;;;4940599;28;20122;-75
2022/10/30 04:07:19;;;;;;;13.80;6.78;;;14.40;99.90;;;;;;4964576;28;20038;-76
2022/10/30 04:09:44;;;;;;;21.10;5.97;;;14.40;99.90;;;;;;4947671;28;20081;-73
2022/10/30 04:12:10;;;;;;;12.73;6.87;;;14.30;99.90;;;;;;4966483;28;20304;-76
2022/10/30 04:14:35;;;;;;;15.48;7.20;;;14.40;99.90;;;;;;4945596;28;20049;-76
2022/10/30 04:17:01;;;;;;;11.73;6.27;;;14.40;99.90;;;;;;4965198;28;20047;-75
2022/10/30 04:19:26;;;;;;;13.13;7.00;;;14.30;99.90;;;;;;4933020;28;20116;-74
2022/10/30 04:21:52;;;;;;;14.20;6.43;;;14.30;99.90;;;;;;4948218;28;20900;-74
2022/10/30 04:24:18;;;;;;;12.35;5.95;;;14.30;99.90;;;;;;4951281;28;20154;-71
2022/10/30 04:26:44;;;;;;;15.40;6.03;;;14.30;99.90;;;;;;4953579;28;20062;-72
2022/10/30 04:29:09;;;;;;;13.90;6.32;;;14.30;99.90;;;;;;4945709;28;20039;-72
2022/10/30 04:31:35;;;;;;;12.23;6.07;;;14.20;99.90;;;;;;4944852;28;20528;-72
2022/10/30 04:34:01;;;;;;;13.75;6.75;;;14.20;99.90;;;;;;4948072;28;20089;-72
2022/10/30 04:36:32;;;;;;;;;;;14.30;99.90;;;;;;4959817;28;20277;-72
2022/10/30 04:38:59;;;;;;;14.27;6.40;;;14.20;99.90;;;;;;4946087;28;20356;-72
2022/10/30 04:41:25;;;;;;;12.10;6.40;;;14.20;99.90;;;;;;4951517;28;20057;-72
2022/10/30 04:43:51;;;;;;;12.02;5.95;;;14.20;99.90;;;;;;4962809;28;20477;-72
2022/10/30 04:46:17;;;;;;;13.98;6.72;;;14.20;99.90;;;;;;4961314;28;20039;-72
2022/10/30 04:48:43;;;;;;;;;;;14.20;99.90;;;;;;4946933;28;20110;-71
2022/10/30 04:51:10;;;;;;;16.25;7.30;;;14.20;99.90;;;;;;4943483;28;20025;-72
2022/10/30 04:53:37;;;;;;;17.38;6.90;;;14.20;99.90;;;;;;4962686;28;20047;-72
2022/10/30 04:56:04;;;;;;;20.52;7.55;;;14.20;99.90;;;;;;4963878;28;20043;-72
2022/10/30 04:58:29;;;;;;;12.77;6.30;;;14.10;99.90;;;;;;4947829;28;20188;-71
2022/10/30 05:00:59;;;;;;;14.20;6.63;;;14.10;99.90;;;;;;4961758;28;20062;-72
2022/10/30 05:03:24;;;;;;;25.65;7.18;;;14.10;99.90;;;;;;4961438;28;20449;-71
2022/10/30 05:06:00;;;;;;;15.45;6.32;;;14.10;99.90;;;;;;4949100;28;20069;-72
2022/10/30 05:08:26;;;;;;;14.23;5.85;;;14.10;99.90;;;;;;4946013;28;20158;-72
2022/10/30 05:10:52;;;;;;;;;;;14.10;99.90;;;;;;4949621;28;20039;-72
2022/10/30 05:13:18;;;;;;;14.13;6.20;;;14.00;99.90;;;;;;4961025;28;20159;-72
2022/10/30 05:15:43;;;;;;;12.40;6.73;;;14.00;99.90;;;;;;4946562;28;20520;-72
2022/10/30 05:18:09;;;;;;;14.47;6.47;;;14.00;99.90;;;;;;4948632;28;20363;-71
2022/10/30 05:20:35;;;;;;;11.98;6.63;;;14.00;99.90;;;;;;4951075;28;20296;-72
2022/10/30 05:23:01;;;;;;;14.83;6.83;;;14.00;99.90;;;;;;4966096;28;20433;-72
2022/10/30 05:25:27;;;;;;;18.65;6.57;;;14.00;99.90;;;;;;4953011;28;20679;-72
2022/10/30 05:28:03;;;;;;;14.48;6.70;;;14.00;99.90;;;;;;4966032;28;20038;-71
2022/10/30 05:30:31;;;;;;;13.20;6.72;;;14.00;99.90;;;;;;4929521;28;20076;-72
2022/10/30 05:33:02;;;;;;;17.50;6.70;;;13.90;99.90;;;;;;4929860;28;20046;-71
2022/10/30 05:35:28;;;;;;;11.98;6.20;;;13.90;99.90;;;;;;4950414;28;20070;-72
2022/10/30 05:37:54;;;;;;;17.05;7.72;;;13.90;99.90;;;;;;4965405;28;20638;-72
2022/10/30 05:40:20;;;;;;;20.77;6.88;;;13.90;99.90;;;;;;4932028;28;20058;-72
2022/10/30 05:42:47;;;;;;;18.13;6.70;;;13.90;99.90;;;;;;4961818;28;20122;-72
2022/10/30 05:45:13;;;;;;;16.58;6.70;;;13.90;99.90;;;;;;4965998;28;20283;-72
2022/10/30 05:47:39;;;;;;;18.95;6.72;;;13.90;99.90;;;;;;4965327;28;20118;-72
2022/10/30 05:50:05;;;;;;;17.30;7.18;;;13.90;99.90;;;;;;4950900;28;20386;-71
2022/10/30 05:52:30;;;;;;;;;;;13.90;99.90;;;;;;4965877;28;20460;-72
2022/10/30 05:54:56;;;;;;;26.77;6.97;;;13.90;99.90;;;;;;4967275;28;20185;-72
2022/10/30 05:57:22;;;;;;;14.17;6.50;;;13.90;99.90;;;;;;4948291;28;20051;-72
2022/10/30 05:59:47;;;;;;;18.13;7.53;;;13.90;99.90;;;;;;4929343;28;20134;-71
2022/10/30 06:02:13;;;;;;;15.02;7.20;;;13.80;99.90;;;;;;4959793;28;20489;-72
2022/10/30 06:04:38;;;;;;;13.57;7.20;;;13.80;99.90;;;;;;4929659;28;20042;-71
2022/10/30 06:07:04;;;;;;;13.77;6.53;;;13.80;99.90;;;;;;4948936;28;20516;-72
2022/10/30 06:09:30;;;;;;;20.20;8.00;;;13.80;99.90;;;;;;4945826;28;20663;-72
2022/10/30 06:11:57;;;;;;;13.50;6.43;;;13.70;99.90;;;;;;4948015;28;20043;-72
2022/10/30 06:14:22;;;;;;;12.68;7.35;;;13.70;99.90;;;;;;4947936;28;20285;-72
2022/10/30 06:16:48;;;;;;;18.17;6.55;;;13.70;99.90;;;;;;4945935;28;20096;-72
2022/10/30 06:19:14;;;;;;;14.52;6.75;;;13.70;99.90;;;;;;4970433;28;20432;-72
2022/10/30 06:21:39;;;;;;;12.40;7.00;;;13.60;99.90;;;;;;4946848;28;20034;-72
2022/10/30 06:24:05;;;;;;;16.17;6.60;;;13.60;99.90;;;;;;4948947;28;20066;-72
2022/10/30 06:26:31;;;;;;;17.63;7.18;;;13.60;99.90;;;;;;4947856;28;20128;-72
2022/10/30 06:28:57;;;;;;;14.17;7.13;;;13.60;99.90;;;;;;4949579;28;20043;-72
2022/10/30 06:31:22;;;;;;;15.93;6.75;;;13.50;99.90;;;;;;4961635;28;20055;-71
2022/10/30 06:33:48;;;;;;;15.17;7.33;;;13.50;99.90;;;;;;4950383;28;20054;-72
2022/10/30 06:36:13;;;;;;;16.53;7.57;;;13.60;99.90;;;;;;4949192;28;20299;-72
2022/10/30 06:38:39;;;;;;;12.97;6.23;;;13.50;99.90;;;;;;4933397;28;20094;-72
2022/10/30 06:41:05;;;;;;;16.13;8.05;;;13.50;99.90;;;;;;4929508;28;20296;-72
2022/10/30 06:43:30;;;;;;;21.47;8.67;;;13.50;99.90;;;;;;4948879;28;20046;-72
2022/10/30 06:45:59;;;;;;;20.47;7.10;;;13.50;99.90;;;;;;4951368;28;20662;-72
2022/10/30 06:48:25;;;;;;;19.80;7.00;;;13.50;99.90;;;;;;4962248;28;20054;-72
2022/10/30 06:50:58;;;;;;;15.50;7.15;;;13.50;99.90;;;;;;4952617;28;20133;-72
2022/10/30 06:53:24;;;;;;;13.77;6.93;;;13.50;99.90;;;;;;4955227;28;20116;-72
2022/10/30 06:56:03;;;;;;;21.63;7.78;;;13.50;99.90;;;;;;4965671;28;20043;-72
2022/10/30 06:58:29;;;;;;;20.00;6.90;;;13.50;99.90;;;;;;4944996;28;20059;-72
2022/10/30 07:00:55;;;;;;;11.40;5.93;;;13.50;99.90;;;;;;4947427;28;20037;-72
2022/10/30 07:03:21;;;;;;;14.15;7.10;;;13.50;99.90;;;;;;4941457;28;20050;-72
2022/10/30 07:05:46;;;;;;;14.10;7.97;;;13.50;99.90;;;;;;4966710;28;20190;-72
2022/10/30 07:08:13;;;;;;;16.95;8.23;;;13.50;99.90;;;;;;4933352;28;20646;-72
2022/10/30 07:10:38;;;;;;;20.00;7.18;;;13.50;99.90;;;;;;4931174;28;20072;-72
2022/10/30 07:13:04;;;;;;;17.80;6.93;;;13.60;99.90;;;;;;4948243;28;20425;-73
2022/10/30 07:15:30;;;;;;;13.73;6.87;;;13.60;99.90;;;;;;4945070;28;20129;-73
2022/10/30 07:17:58;;;;;;;20.87;7.80;;;13.50;99.90;;;;;;4954911;28;20302;-73
2022/10/30 07:20:25;;;;;;;21.90;7.30;;;13.60;99.90;;;;;;4937413;28;20786;-72
2022/10/30 07:22:51;;;;;;;13.30;7.40;;;13.60;99.90;;;;;;4966256;28;20049;-72
2022/10/30 07:25:17;;;;;;;13.18;7.68;;;13.60;99.90;;;;;;4960353;28;20125;-72
2022/10/30 07:27:51;;;;;;;19.52;7.25;;;13.60;99.90;;;;;;4945044;28;20075;-72
2022/10/30 07:30:21;;;;;;;18.13;7.28;;;13.60;99.90;;;;;;4958779;28;20146;-72
2022/10/30 07:32:59;;;;;;;13.50;7.43;;;13.60;99.90;;;;;;4969882;28;20043;-72
2022/10/30 07:35:25;;;;;;;13.77;7.22;;;13.60;99.90;;;;;;4944898;28;20053;-72
2022/10/30 07:37:51;;;;;;;18.05;7.22;;;13.60;99.90;;;;;;4964905;28;20250;-72
2022/10/30 07:40:17;;;;;;;18.50;7.22;;;13.70;99.90;;;;;;4948357;28;20043;-72
2022/10/30 07:42:43;;;;;;;14.45;7.13;;;13.70;99.90;;;;;;4938587;28;20118;-72
2022/10/30 07:45:08;;;;;;;20.50;6.73;;;13.70;99.90;;;;;;4944826;28;20497;-72
2022/10/30 07:47:41;;;;;;;16.70;7.87;;;13.80;99.90;;;;;;4946658;28;20617;-72
2022/10/30 07:50:07;;;;;;;19.48;7.32;;;13.80;99.90;;;;;;4945696;28;20370;-72
2022/10/30 07:52:33;;;;;;;15.77;6.80;;;13.80;99.90;;;;;;4946099;28;20077;-72
2022/10/30 07:54:59;;;;;;;13.83;6.30;;;14.00;99.90;;;;;;4961274;28;20046;-72
2022/10/30 07:57:24;;;;;;;13.30;6.70;;;13.90;99.90;;;;;;4962683;28;20191;-72
2022/10/30 07:59:50;;;;;;;19.60;7.37;;;14.00;99.90;;;;;;4961262;28;20786;-72
2022/10/30 08:02:15;;;;;;;15.43;7.13;;;14.10;99.90;;;;;;4961980;28;20057;-73
2022/10/30 08:04:41;;;;;;;13.40;5.87;;;14.00;99.90;;;;;;4952770;28;20128;-72
2022/10/30 08:07:06;;;;;;;16.40;7.07;;;14.10;99.90;;;;;;4965188;28;20275;-73
2022/10/30 08:09:32;;;;;;;22.13;7.30;;;14.10;99.90;;;;;;4961917;28;20031;-72
2022/10/30 08:11:58;;;;;;;14.70;7.10;;;14.20;99.90;;;;;;4961893;28;20455;-72
2022/10/30 08:14:23;;;;;;;12.57;6.80;;;14.20;99.90;;;;;;4960312;28;20555;-72
2022/10/30 08:16:50;;;;;;;13.77;6.97;;;14.30;99.90;;;;;;4943224;28;20396;-72
2022/10/30 08:19:16;;;;;;;13.07;6.63;;;14.30;99.90;;;;;;4945099;28;20501;-72
2022/10/30 08:21:41;;;;;;;15.77;7.57;;;14.40;99.90;;;;;;4951159;28;20042;-72
2022/10/30 08:24:07;;;;;;;13.80;7.33;;;14.40;99.90;;;;;;4944163;28;20484;-72
2022/10/30 08:26:34;;;;;;;13.02;7.18;;;14.50;99.90;;;;;;4943916;28;20950;-72
2022/10/30 08:28:59;;;;;;;16.35;7.00;;;14.60;99.90;;;;;;4962386;28;20174;-72
2022/10/30 08:31:25;;;;;;;17.92;6.95;;;14.60;99.90;;;;;;4939987;28;20153;-71
2022/10/30 08:33:51;;;;;;;17.90;6.75;;;14.60;99.90;;;;;;4964213;28;20043;-72
2022/10/30 08:36:16;;;;;;;14.90;6.83;;;14.70;99.90;;;;;;4964895;28;20173;-72
2022/10/30 08:38:42;;;;;;;14.30;6.53;;;14.70;99.90;;;;;;4943267;28;20066;-72
2022/10/30 08:41:07;;;;;;;15.80;6.73;;;14.80;99.90;;;;;;4943241;28;20492;-72
2022/10/30 08:43:33;;;;;;;17.47;7.50;;;14.90;99.90;;;;;;4958055;28;20058;-72
2022/10/30 08:45:59;;;;;;;19.65;7.35;;;14.90;99.90;;;;;;4949096;28;20043;-72
2022/10/30 08:48:24;;;;;;;20.98;7.18;;;15.10;99.90;;;;;;4947713;28;20186;-72
2022/10/30 08:50:57;;;;;;;11.73;6.47;;;15.10;99.90;;;;;;4961816;28;20061;-72
2022/10/30 08:53:23;;;;;;;17.73;7.70;;;15.10;99.90;;;;;;4956093;28;20047;-72
2022/10/30 08:55:50;;;;;;;12.85;6.68;;;15.30;99.90;;;;;;4948675;28;20144;-72
2022/10/30 08:58:16;;;;;;;15.85;8.13;;;15.30;99.90;;;;;;4951166;28;20130;-72
2022/10/30 09:00:41;;;;;;;20.17;7.57;;;15.40;99.90;;;;;;5003078;22;20192;-69
2022/10/30 09:03:07;;;;;;;16.53;7.10;;;15.50;99.90;;;;;;5011230;28;20439;-69
2022/10/30 09:05:32;;;;;;;16.97;7.30;;;15.50;99.90;;;;;;4993834;28;20272;-69
2022/10/30 09:07:59;;;;;;;17.17;7.70;;;15.60;99.90;;;;;;5010882;28;20267;-69
2022/10/30 09:10:26;;;;;;;18.38;7.07;;;15.70;99.90;;;;;;4993637;28;20302;-69
2022/10/30 09:12:58;;;;;;;15.95;7.82;;;15.70;99.90;;;;;;4992902;28;20306;-69
2022/10/30 09:15:27;;;;;;;15.48;7.25;;;15.80;99.90;;;;;;4993583;28;20045;-69
2022/10/30 09:18:01;;;;;;;13.32;6.50;;;15.80;99.90;;;;;;5011090;28;20085;-69
2022/10/30 09:20:28;;;;;;;24.27;7.03;;;15.90;99.90;;;;;;4992853;28;20045;-69
2022/10/30 09:22:54;;;;;;;24.33;7.50;;;15.90;99.90;;;;;;4976769;28;20042;-69
2022/10/30 09:25:19;;;;;;;12.32;6.78;;;16.00;99.90;;;;;;4992676;28;20072;-69
2022/10/30 09:27:45;;;;;;;20.27;7.47;;;16.00;99.90;;;;;;4976849;28;20165;-69
2022/10/30 09:30:12;;;;;;;15.30;6.55;;;16.10;99.90;;;;;;5011062;28;20053;-69
2022/10/30 09:32:38;;;;;;;18.48;6.97;;;16.20;99.90;;;;;;4992761;28;20057;-69
2022/10/30 09:35:04;;;;;;;14.68;6.70;;;16.30;99.90;;;;;;4993062;28;20393;-69
2022/10/30 09:37:33;;;;;;;13.63;6.45;;;16.30;99.90;;;;;;4977461;28;20104;-69
2022/10/30 09:39:59;;;;;;;16.85;7.30;;;16.40;99.90;;;;;;5010987;28;20042;-70
2022/10/30 09:42:24;;;;;;;15.18;7.65;;;16.50;99.90;;;;;;5010930;28;20053;-69
2022/10/30 09:45:17;;;;;;;12.53;7.30;;;16.60;99.90;;;;;;4992236;28;20046;-69
2022/10/30 09:47:52;;;;;;;18.55;7.20;;;16.70;99.90;;;;;;5010629;28;20095;-70
2022/10/30 09:50:31;;;;;;;12.40;6.50;;;16.80;99.90;;;;;;4992414;28;20451;-71
2022/10/30 09:53:24;;;;;;;13.95;7.70;;;16.80;99.90;;;;;;4992565;28;20046;-71
2022/10/30 09:56:03;;;;;;;15.85;7.30;;;17.00;99.90;;;;;;4992954;28;20049;-71
2022/10/30 09:58:53;;;;;;;15.80;6.82;;;17.00;99.90;;;;;;4992700;28;20038;-71
2022/10/30 10:01:40;;;;;;;14.45;7.93;;;17.10;99.90;;;;;;4992181;28;20484;-71
2022/10/30 10:04:27;;;;;;;12.30;6.22;;;17.20;99.90;;;;;;5009992;28;20488;-71
2022/10/30 10:06:59;;;;;;;15.90;6.63;;;17.30;99.90;;;;;;5010269;28;20404;-71
2022/10/30 10:09:28;;;;;;;12.23;6.72;;;17.40;99.90;;;;;;4991674;28;20069;-71
2022/10/30 10:12:03;;;;;;;15.77;7.15;;;17.50;99.90;;;;;;4992819;28;20056;-71
2022/10/30 10:14:38;;;;;;;20.73;6.55;;;17.60;99.90;;;;;;5009571;28;20128;-71
2022/10/30 10:17:14;;;;;;;13.75;6.82;;;17.60;99.90;;;;;;4992486;28;20057;-71
2022/10/30 10:19:58;;;;;;;12.98;6.57;;;17.70;99.90;;;;;;5009676;28;20550;-71
2022/10/30 10:22:37;;;;;;;17.05;7.43;;;17.80;99.90;;;;;;5009998;28;20408;-72
2022/10/30 10:25:08;;;;;;;19.27;6.43;;;17.90;99.90;;;;;;4991745;28;20034;-71
2022/10/30 10:27:42;;;;;;;9.90;6.03;;;18.00;99.90;;;;;;5009626;28;20129;-72
2022/10/30 10:30:14;;;;;;;22.55;18.25;;;18.10;99.90;;;;;;5009667;28;20133;-71
2022/10/30 10:33:04;;;;;;;15.90;9.13;;;18.10;99.90;;;;;;5009476;28;20037;-71
2022/10/30 10:35:51;;;;;;;15.45;6.18;;;18.20;99.90;;;;;;4991672;28;20460;-71
2022/10/30 10:38:36;;;;;;;;;;;18.30;99.90;;;;;;4992058;28;20037;-73
2022/10/30 10:41:20;;;;;;;12.13;5.65;;;18.30;99.90;;;;;;4991773;28;19960;-72
2022/10/30 10:44:01;;;;;;;11.88;6.00;;;18.40;99.90;;;;;;4992198;28;20076;-76
2022/10/30 10:46:42;;;;;;;12.43;8.52;;;18.50;99.90;;;;;;4992352;28;20385;-72
2022/10/30 10:49:35;;;;;;;14.10;7.93;;;18.60;99.90;;;;;;4991951;28;20045;-72
2022/10/30 10:52:05;;;;;;;14.45;5.75;;;18.60;99.90;;;;;;5010043;28;20181;-72
2022/10/30 10:54:56;;;;;;;12.40;7.00;;;18.70;99.90;;;;;;4991598;28;20042;-72
2022/10/30 10:57:32;;;;;;;10.45;5.93;;;18.80;99.90;;;;;;4991764;28;20054;-72
2022/10/30 11:00:02;;;;;;;16.70;6.65;;;18.90;99.90;;;;;;4991378;28;20069;-76
2022/10/30 11:02:44;;;;;;;13.15;5.40;;;19.00;99.90;;;;;;4991620;28;20053;-74
2022/10/30 11:05:32;;;;;;;12.75;6.13;;;19.10;99.90;;;;;;4991061;28;20099;-72
2022/10/30 11:08:08;;;;;;;10.55;5.25;;;19.10;99.90;;;;;;4995817;28;20045;-72
2022/10/30 11:10:38;;;;;;;17.88;6.93;;;19.20;99.90;;;;;;4921553;28;20346;-74
2022/10/30 11:13:04;;;;;;;10.07;5.70;;;19.30;99.90;;;;;;4999545;28;20377;-73
2022/10/30 11:15:50;;;;;;;;;;;19.30;99.90;;;;;;4991277;28;20266;-73
2022/10/30 11:18:19;;;;;;;8.80;4.53;;;19.30;99.90;;;;;;4908702;28;20095;-72
2022/10/30 11:21:01;;;;;;;16.08;10.25;;;19.40;99.90;;;;;;4975386;28;20072;-74
2022/10/30 11:23:30;;;;;;;9.15;5.10;;;19.40;99.90;;;;;;4991814;28;20050;-74
2022/10/30 11:25:56;;;;;;;11.90;4.85;;;19.40;99.90;;;;;;4980875;28;20041;-73
2022/10/30 11:28:48;;;;;;;11.52;5.32;;;19.40;99.90;;;;;;4935601;28;20232;-72
2022/10/30 11:31:51;;;;;;;8.15;4.60;;;19.50;99.90;;;;;;4834842;28;20356;-75
2022/10/30 11:34:33;;;;;;;10.00;4.95;;;19.50;99.90;;;;;;4925190;28;20057;-73
2022/10/30 11:36:59;;;;;;;12.35;5.15;;;19.60;99.90;;;;;;4975509;28;20049;-73
2022/10/30 11:39:28;;;;;;;13.90;8.35;;;19.70;99.90;;;;;;5008882;28;20030;-73
2022/10/30 11:42:07;;;;;;;12.05;5.65;;;19.60;99.90;;;;;;4863382;28;20538;-72
2022/10/30 11:45:57;;;;;;;11.55;6.07;;;19.60;99.90;;;;;;4862380;28;20045;-75
2022/10/30 11:48:53;;;;;;;7.60;4.57;;;19.70;99.90;;;;;;4915103;28;20482;-71
2022/10/30 11:51:43;;;;;;;10.57;4.43;;;19.80;99.90;;;;;;5007643;28;20414;-71
2022/10/30 11:54:18;;;;;;;17.50;9.55;;;19.90;99.90;;;;;;4986748;28;20041;-72
2022/10/30 11:56:47;;;;;;;14.80;8.93;;;20.00;99.90;;;;;;4986588;28;20507;-72
2022/10/30 11:59:18;;;;;;;17.95;6.00;;;20.00;99.90;;;;;;5004168;28;20049;-71
2022/10/30 12:02:18;;;;;;;11.80;5.05;;;20.00;99.90;;;;;;4992969;28;20121;-72
2022/10/30 12:04:50;;;;;;;11.95;5.95;;;20.00;99.90;;;;;;4989987;28;20053;-71
2022/10/30 12:07:28;;;;;;;9.63;5.00;;;20.10;99.90;;;;;;5011678;28;20137;-72
2022/10/30 12:09:56;;;;;;;11.35;4.97;;;20.20;99.90;;;;;;4967792;28;20035;-72
2022/10/30 12:12:27;;;;;;;15.95;5.75;;;20.20;99.90;;;;;;5002843;28;20112;-71
2022/10/30 12:14:53;;;;;;;12.15;4.80;;;20.20;99.90;;;;;;4998745;28;20671;-72
2022/10/30 12:17:21;;;;;;;10.35;4.65;;;20.20;99.90;;;;;;5002431;28;20143;-72
2022/10/30 12:19:54;;;;;;;12.27;5.72;;;20.30;99.90;;;;;;5006960;28;20333;-71
2022/10/30 12:22:29;;;;;;;15.27;5.28;;;20.30;99.90;;;;;;5008527;28;20121;-73
2022/10/30 12:24:56;;;;;;;13.32;4.70;;;20.30;99.90;;;;;;5007690;28;20302;-72
2022/10/30 12:27:21;;;;;;;12.57;6.18;;;20.40;99.90;;;;;;4990196;28;20038;-71
2022/10/30 12:29:50;;;;;;;12.43;6.28;;;20.50;99.90;;;;;;5007550;28;20040;-71
2022/10/30 12:32:20;;;;;;;12.73;5.00;;;20.50;99.90;;;;;;5008585;28;20099;-72
2022/10/30 12:34:57;;;;;;;12.20;6.00;;;20.50;99.90;;;;;;4990389;28;20401;-71
2022/10/30 12:37:27;;;;;;;16.88;6.07;;;20.40;99.90;;;;;;5008384;28;20092;-71
2022/10/30 12:40:18;;;;;;;14.25;5.68;;;20.40;99.90;;;;;;4983110;28;20050;-71
2022/10/30 12:43:08;;;;;;;11.65;7.32;;;20.40;99.90;;;;;;4990007;28;20041;-72
2022/10/30 12:45:42;;;;;;;13.45;6.93;;;20.40;99.90;;;;;;4987785;28;20557;-71
2022/10/30 12:48:36;;;;;;;15.55;7.50;;;20.40;99.90;;;;;;4984595;28;20041;-71
2022/10/30 12:51:19;;;;;;;11.98;8.27;;;20.40;99.90;;;;;;5008530;28;20056;-72
2022/10/30 12:53:57;;;;;;;12.45;5.88;;;20.40;99.90;;;;;;4988679;28;20120;-72
2022/10/30 12:56:34;;;;;;;12.55;5.63;;;20.30;99.90;;;;;;4991937;28;20495;-72
2022/10/30 12:59:28;;;;;;;10.02;5.78;;;20.30;99.90;;;;;;4974968;28;20120;-71